METAR Data
IDs: Format: Raw Decoded Include TAF

Data at: 1743 UTC 21 Sep 2018

KCWC 211735Z AUTO 02009KT 10SM RA BKN007 OVC013 24/24 A2998 RMK AO2 P0001 T02430235
KCWC 211715Z AUTO 02005KT 10SM -RA BKN007 BKN010 24/23 A2999 RMK AO2 P0001 T02400233
KCWC 211655Z AUTO 00000KT 7SM -RA BKN009 BKN049 24/23 A2998 RMK AO2 LTG DSNT NE P0006 T02370230
KCWC 211635Z AUTO 00000KT 5SM -RA BKN009 BKN020 OVC039 24/23 A2999 RMK AO2 LTG DSNT NE P0005 T02350227
KCWC 211615Z AUTO 20007KT 5SM RA SCT009 BKN014 OVC035 23/23 A2999 RMK AO2 P0002 T02330225
KCWC 211555Z AUTO 20009KT 7SM RA SCT006 BKN012 OVC017 23/23 A2999 RMK AO2 P0025 T02320226
KCWC 211535Z AUTO 18008G14KT 120V200 1 1/2SM +RA BKN009 OVC014 24/23 A2998 RMK AO2 P0020 T02360229
KCWC 211515Z AUTO 15003KT 7SM RA SCT014 BKN034 OVC050 24/23 A2997 RMK AO2 P0002 T02370230
KCWC 211455Z AUTO 19008KT 5SM RA SCT014 SCT038 OVC048 24/23 A2996 RMK AO2 P0003 60004 T02370230
KCWC 211435Z AUTO 15005KT 10SM DZ BKN013 OVC018 24/23 A2996 RMK AO2 T02370230
KCWC 211415Z AUTO 13006KT 10SM DZ OVC016 24/23 A2996 RMK AO2 T02370229
KCWC 211355Z AUTO 16007KT 130V190 10SM SCT013 OVC018 24/23 A2996 RMK AO2 T02350227
KCWC 211335Z AUTO 12011KT 10SM OVC014 23/23 A2996 RMK AO2 T02330226
KCWC 211315Z AUTO 11009KT 10SM BKN014 OVC019 23/23 A2995 RMK AO2 LTG DSNT SW T02320226
KCWC 211255Z AUTO 11007KT 10SM BKN014 OVC019 23/22 A2994 RMK AO2 P0001 T02300223
KCWC 211235Z AUTO 11005KT 10SM OVC016 23/22 A2994 RMK AO2 P0001 T02280223
KCWC 211215Z AUTO 10006KT 7SM RA OVC021 23/22 A2993 RMK AO2 P0001 T02280223
KCWC 211155Z AUTO 10004KT 10SM SCT012 OVC021 23/22 A2994 RMK AO2 60004 70006 T02290222 10235 20225
KCWC 211135Z AUTO 11008KT 10SM BKN014 OVC021 23/22 A2994 RMK AO2 T02270221
KCWC 211115Z AUTO 11008KT 10SM OVC021 23/22 A2994 RMK AO2 T02260220
KCWC 211055Z AUTO 12010KT 10SM -DZ BKN019 OVC035 23/22 A2994 RMK AO2 P0004 T02260220
KCWC 211035Z AUTO 15008KT 120V180 5SM RA SCT017 BKN030 OVC090 23/22 A2994 RMK AO2 P0003 T02260220
KCWC 211015Z AUTO 12010KT 10SM DZ BKN015 OVC035 23/22 A2993 RMK AO2 P0001 T02270219
KCWC 210955Z AUTO 15008KT 110V190 10SM OVC015 23/22 A2993 RMK AO2 T02310216
KCWC 210935Z AUTO 12009KT 10SM OVC015 23/22 A2993 RMK AO2 T02300215
KCWC 210915Z AUTO 12009KT 10SM OVC015 23/22 A2993 RMK AO2 T02300215
KCWC 210855Z AUTO 11008KT 10SM OVC015 23/21 A2993 RMK AO2 T02270213
KCWC 210835Z AUTO 12009KT 10SM BKN015 BKN049 BKN120 23/21 A2993 RMK AO2 T02270213
KCWC 210815Z AUTO 14008KT 10SM SCT015 SCT049 BKN120 23/21 A2993 RMK AO2 T02270212
KCWC 210755Z AUTO 15005KT 10SM SCT060 OVC120 23/21 A2993 RMK AO2 T02300213
KCWC 210735Z AUTO 18011KT 10SM BKN120 23/21 A2993 RMK AO2 T02300213
KCWC 210715Z AUTO 18011KT 130V190 10SM SCT075 SCT110 23/21 A2993 RMK AO2 T02310213
KCWC 210655Z AUTO 18012KT 130V190 10SM SCT075 SCT095 23/21 A2992 RMK AO2 T02320213
KCWC 210635Z AUTO 17013KT 10SM SCT095 23/21 A2992 RMK AO2 T02330214
KCWC 210615Z AUTO 18011KT 10SM SCT085 23/22 A2992 RMK AO2 T02330215
KCWC 210555Z AUTO 15011KT 130V190 10SM BKN085 24/22 A2992 RMK AO2 60001 T02350215 10235 20220 403450218
KCWC 210535Z AUTO 17012KT 10SM CLR 23/22 A2993 RMK AO2 T02330215
KCWC 210515Z AUTO 17013G16KT 130V190 10SM CLR 23/21 A2993 RMK AO2 T02330213
KCWC 210455Z AUTO 18012KT 10SM CLR 23/21 A2994 RMK AO2 T02320213
KCWC 210435Z AUTO 18010KT 10SM SCT100 24/21 A2994 RMK AO2 T02350212
KCWC 210415Z AUTO 18010G15KT 10SM SCT100 24/21 A2994 RMK AO2 T02350212
KCWC 210355Z AUTO 19009KT 10SM CLR 23/21 A2995 RMK AO2 T02340211
KCWC 210335Z AUTO 18011KT 10SM CLR 23/21 A2995 RMK AO2 T02330208
KCWC 210315Z AUTO 18011KT 10SM CLR 23/21 A2994 RMK AO2 T02300206
KCWC 210255Z AUTO 18009G14KT 10SM SCT120 23/20 A2994 RMK AO2 60001 T02260204
KCWC 210235Z AUTO 16007KT 10SM SCT120 23/20 A2993 RMK AO2 T02250200
KCWC 210215Z AUTO 15007KT 10SM SCT120 22/20 A2993 RMK AO2 T02240201
KCWC 210155Z AUTO 14008KT 10SM SCT120 22/20 A2992 RMK AO2 T02220200
KCWC 210135Z AUTO 15007KT 10SM CLR 22/20 A2992 RMK AO2 T02210198
KCWC 210115Z AUTO 15009KT 10SM -RA SCT039 SCT060 SCT120 22/20 A2991 RMK AO2 T02200200
KCWC 210055Z AUTO 15010KT 10SM CLR 22/20 A2992 RMK AO2 P0001 T02220197
KCWC 210035Z AUTO 16012KT 10SM SCT046 SCT060 SCT070 22/20 A2992 RMK AO2 P0001 T02240197
KCWC 210015Z AUTO 14015G20KT 10SM -RA SCT046 BKN060 OVC080 23/21 A2991 RMK AO2 P0001 T02250210
KCWC 202355Z AUTO 17017G20KT 10SM -RA SCT050 BKN070 OVC090 23/21 A2991 RMK AO2 LTG DSNT NW P0001 60001 T02330207 10345 20230
KCWC 202335Z AUTO 19011G25KT 10SM -TSRA SCT020 BKN060 OVC085 23/21 A2990 RMK AO2 LTG DSNT ALQS T02300210
KCWC 202315Z AUTO 19026G37KT 10SM SCT043 SCT050 BKN060 31/20 A2987 RMK AO2 LTG DSNT S AND SW T03050201
KCWC 202255Z AUTO 14019G25KT 10SM CLR 33/20 A2985 RMK AO2 T03260197
KCWC 202235Z AUTO 15017KT 10SM CLR 33/20 A2984 RMK AO2 LTG DSNT S T03260200
KCWC 202215Z AUTO 13014G27KT 10SM SCT060 SCT080 33/20 A2983 RMK AO2 T03260200
KCWC 202155Z AUTO 15015G23KT 10SM SCT060 BKN080 34/19 A2983 RMK AO2 T03420187
KCWC 202135Z AUTO 14015KT 10SM SCT060 SCT090 34/20 A2984 RMK AO2 T03390195
KCWC 202115Z AUTO 13014G17KT 10SM CLR 35/20 A2985 RMK AO2 T03450195
KCWC 202055Z AUTO 14010G14KT 10SM SCT025 SCT034 SCT060 32/20 A2986 RMK AO2 T03230201
KCWC 202035Z AUTO 15013KT 10SM BKN060 BKN080 BKN090 33/19 A2987 RMK AO2 T03290189
KCWC 202015Z AUTO 19010KT 10SM SCT065 SCT095 SCT110 34/19 A2988 RMK AO2 T03410189
KCWC 201955Z AUTO 19012G21KT 10SM SCT055 SCT075 SCT090 34/19 A2989 RMK AO2 T03380186
KCWC 201935Z AUTO 15014G18KT 10SM SCT055 BKN065 BKN090 33/19 A2990 RMK AO2 T03300194
KCWC 201915Z AUTO 19013G18KT 140V200 10SM SCT050 SCT065 33/20 A2991 RMK AO2 T03340196
KCWC 201855Z AUTO 17011G15KT 10SM SCT050 SCT065 33/20 A2991 RMK AO2 T03300196
KCWC 201835Z AUTO 15012G19KT 10SM SCT050 33/20 A2992 RMK AO2 T03270199
KCWC 201815Z AUTO 17015G20KT 10SM SCT050 33/20 A2993 RMK AO2 T03330202
KCWC 201755Z AUTO 17014G19KT 10SM CLR 33/20 A2994 RMK AO2 T03260198 10326 20218
KCWC 201735Z AUTO 16017G20KT 10SM SCT043 32/20 A2995 RMK AO2 T03240203
KCWC 201715Z AUTO 17012G20KT 140V200 10SM SCT043 SCT049 32/21 A2996 RMK AO2 T03200207
KCWC 201655Z AUTO 19014G20KT 10SM SCT043 31/21 A2996 RMK AO2 T03080205
KCWC 201635Z AUTO 16013G19KT 140V220 10SM SCT041 31/21 A2997 RMK AO2 T03130210
KCWC 201615Z AUTO 20010G20KT 140V230 10SM CLR 31/21 A2997 RMK AO2 T03060211
KCWC 201555Z AUTO 22010G14KT 10SM CLR 29/21 A2997 RMK AO2 T02940208
KCWC 201535Z AUTO 19011G16KT 10SM CLR 30/21 A2997 RMK AO2 T02950211
KCWC 201515Z AUTO 20006KT 10SM CLR 29/21 A2997 RMK AO2 T02850213
KCWC 201455Z AUTO 21007KT 10SM CLR 28/21 A2997 RMK AO2 T02770212
KCWC 201435Z AUTO 22008G18KT 10SM CLR 27/21 A2997 RMK AO2 T02680212
KCWC 201415Z AUTO 21007KT 10SM CLR 26/21 A2997 RMK AO2 T02620211
KCWC 201355Z AUTO 19007KT 10SM CLR 25/21 A2996 RMK AO2 T02530210
KCWC 201335Z AUTO 19007KT 10SM CLR 24/21 A2996 RMK AO2 T02420208
KCWC 201315Z AUTO 19008KT 10SM CLR 23/21 A2995 RMK AO2 T02310205
KCWC 201255Z AUTO 17005KT 10SM CLR 22/20 A2995 RMK AO2 T02240201
KCWC 201235Z AUTO 16005KT 10SM CLR 22/20 A2994 RMK AO2 T02200200
KCWC 201215Z AUTO 19008KT 10SM CLR 22/20 A2994 RMK AO2 T02220200
KCWC 201155Z AUTO 15006KT 10SM CLR 22/20 A2993 RMK AO2 T02220200 10240 20222
KCWC 201135Z AUTO 20009KT 10SM CLR 23/20 A2993 RMK AO2 T02270200
KCWC 201115Z AUTO 16007KT 10SM CLR 23/20 A2993 RMK AO2 T02260200
KCWC 201055Z AUTO 20010KT 10SM CLR 23/20 A2992 RMK AO2 T02310200
KCWC 201035Z AUTO 20008KT 10SM CLR 23/20 A2992 RMK AO2 T02310200
KCWC 201015Z AUTO 19009KT 10SM CLR 23/20 A2992 RMK AO2 T02300200
KCWC 200955Z AUTO 19010KT 10SM CLR 23/20 A2992 RMK AO2 T02250200
KCWC 200935Z AUTO 19008KT 10SM CLR 23/20 A2992 RMK AO2 T02320200
KCWC 200915Z AUTO 13011KT 10SM CLR 23/20 A2992 RMK AO2 T02300200
KCWC 200855Z AUTO 13011KT 10SM CLR 23/20 A2993 RMK AO2 T02300200
KCWC 200835Z AUTO 15008KT 120V180 10SM CLR 23/20 A2993 RMK AO2 T02290199
KCWC 200815Z AUTO 17006KT 10SM CLR 23/20 A2993 RMK AO2 T02300198
KCWC 200755Z AUTO 19011KT 10SM CLR 23/20 A2993 RMK AO2 T02290197
KCWC 200735Z AUTO 17006KT 10SM CLR 24/20 A2993 RMK AO2 T02360197
KCWC 200715Z AUTO 16005KT 10SM CLR 24/20 A2994 RMK AO2 T02380197
KCWC 200655Z AUTO 16006KT 10SM CLR 24/20 A2994 RMK AO2 T02370196
KCWC 200635Z AUTO 15005KT 10SM CLR 24/20 A2994 RMK AO2 T02400196
KCWC 200615Z AUTO 15006KT 10SM CLR 24/20 A2994 RMK AO2 T02400196
KCWC 200555Z AUTO 16005KT 10SM CLR 24/20 A2994 RMK AO2 T02380196 10330 20238 403510211